Pagina principală
METAR-TAF:

METAR-TAF

Aeroporturi :

Bauru, São Paulo, Brazilia

Latitudine: 22-19S, longitudine: 049-04W, elevație: 590 m

Observații meteo curente

Raportul a fost făcut în urmă cu 57 de minute, la 14:00 UTC
Vânt 8 kt de la Nord/Nord-est
Temperatură 27°C
Umiditate 51%
Presiune 1022 hPa
Vizibilitate de 10 km sau mai mult
nu există nori sub 1.500 m și nici cumulonimbus

METAR: SBBU 151400Z 03008KT CAVOK 27/16 Q1022

Ora: 11:57 (14:57 UTC)

Prognoză

Raportul a fost făcut în urmă cu 5 ore și 57 de minute, la 09:00 UTC
Prognoză valabilă de la 15 ora 12 UTC la 15 ora 24 UTC
Vânt 3 kt de la Est/Nord-est
Vizibilitate de 10 km sau mai mult
nu există nori sub 1.500 m și nici cumulonimbus
Devenind
de la 15 ora 15 UTC la 15 ora 17 UTC
Vânt 8 kt de la Nord
Devenind
de la 15 ora 22 UTC la 15 ora 24 UTC
Vânt 5 kt de la Est/Nord-est

TAF: SBBU 150900Z 1512/1524 07003KT CAVOK TN22/1512Z TX31/1518Z BECMG 1515/1517 36008KT BECMG 1522/1524 06005KT RMK PHP

Observații și prognoze meteo pentru peste 4.000 de aeroporturi (rapoarte METAR și TAF).

Stațiile disponibile sunt reprezentate pe hartă prin puncte galbene și roșii.

Țineți indicatorul mouse-ului pe punctul dorit pentru a vedea denumirea stației.

Apoi, faceți clic pentru a vedea observațiile și prognozele meteorologice.

Pentru a schimba harta: Pentru mărire, faceți clic pe butoanele verzi cu cruce neagră; pentru micșorare, pe butonul verde cu o liniuță; pentru hărți învecinate, pe săgețile verzi.


METAR-TAF: